sensor_id;sensor_type;location;lat;lon;timestamp;pressure;altitude;pressure_sealevel;temperature;humidity
7018;BME280;3549;42.162;24.726;2023-03-22T00:00:36;47695.91;;;-141.97;83.02
7018;BME280;3549;42.162;24.726;2023-03-22T00:03:02;47678.63;;;-141.97;83.22
7018;BME280;3549;42.162;24.726;2023-03-22T00:05:28;47776.63;;;-141.97;84.13
7018;BME280;3549;42.162;24.726;2023-03-22T00:07:56;47597.88;;;-141.97;84.41
7018;BME280;3549;42.162;24.726;2023-03-22T00:10:26;47565.22;;;-141.97;84.75
7018;BME280;3549;42.162;24.726;2023-03-22T00:12:53;47586.34;;;-141.97;84.87
7018;BME280;3549;42.162;24.726;2023-03-22T00:15:19;47557.53;;;-141.97;84.45
7018;BME280;3549;42.162;24.726;2023-03-22T00:17:44;47557.53;;;-141.97;84.88
7018;BME280;3549;42.162;24.726;2023-03-22T00:20:11;47676.69;;;-141.97;85.19
7018;BME280;3549;42.162;24.726;2023-03-22T00:22:37;47678.63;;;-141.97;84.72
7018;BME280;3549;42.162;24.726;2023-03-22T00:25:03;47753.56;;;-141.97;85.19
7018;BME280;3549;42.162;24.726;2023-03-22T00:27:30;47578.66;;;-141.97;85.00
7018;BME280;3549;42.162;24.726;2023-03-22T00:29:56;47684.38;;;-141.97;84.58
7018;BME280;3549;42.162;24.726;2023-03-22T00:32:21;47674.78;;;-141.97;85.14
7018;BME280;3549;42.162;24.726;2023-03-22T00:34:47;47692.06;;;-141.97;84.42
7018;BME280;3549;42.162;24.726;2023-03-22T00:37:12;47572.91;;;-141.97;85.19
7018;BME280;3549;42.162;24.726;2023-03-22T00:39:38;47740.13;;;-141.97;84.91
7018;BME280;3549;42.162;24.726;2023-03-22T00:42:04;47665.16;;;-141.97;85.31
7018;BME280;3549;42.162;24.726;2023-03-22T00:44:31;47709.38;;;-141.97;85.25
7018;BME280;3549;42.162;24.726;2023-03-22T00:46:57;47665.16;;;-141.97;84.81
7018;BME280;3549;42.162;24.726;2023-03-22T00:49:23;47507.53;;;-141.97;84.55
7018;BME280;3549;42.162;24.726;2023-03-22T00:51:49;47705.53;;;-141.97;84.98
7018;BME280;3549;42.162;24.726;2023-03-22T00:54:15;47718.97;;;-141.97;84.59
7018;BME280;3549;42.162;24.726;2023-03-22T00:56:42;47665.16;;;-141.97;84.48
7018;BME280;3549;42.162;24.726;2023-03-22T00:59:10;47722.81;;;-141.97;84.38
7018;BME280;3549;42.162;24.726;2023-03-22T01:01:36;47542.16;;;-141.97;84.20
7018;BME280;3549;42.162;24.726;2023-03-22T01:04:01;47676.69;;;-141.97;84.55
7018;BME280;3549;42.162;24.726;2023-03-22T01:06:27;47722.81;;;-141.97;83.89
7018;BME280;3549;42.162;24.726;2023-03-22T01:08:52;47538.28;;;-141.97;83.54
7018;BME280;3549;42.162;24.726;2023-03-22T01:11:19;47688.22;;;-141.97;83.24
7018;BME280;3549;42.162;24.726;2023-03-22T01:13:45;47770.88;;;-141.97;83.95
7018;BME280;3549;42.162;24.726;2023-03-22T01:16:12;47697.84;;;-141.97;84.12
7018;BME280;3549;42.162;24.726;2023-03-22T01:18:37;47534.44;;;-141.97;84.14
7018;BME280;3549;42.162;24.726;2023-03-22T01:21:03;47672.84;;;-141.97;84.04
7018;BME280;3549;42.162;24.726;2023-03-22T01:23:29;47763.19;;;-141.97;84.08
7018;BME280;3549;42.162;24.726;2023-03-22T01:25:54;47557.53;;;-141.97;83.50
7018;BME280;3549;42.162;24.726;2023-03-22T01:28:20;47572.91;;;-141.97;83.16
7018;BME280;3549;42.162;24.726;2023-03-22T01:30:45;47680.53;;;-141.97;83.57
7018;BME280;3549;42.162;24.726;2023-03-22T01:33:11;47797.78;;;-141.97;82.78
7018;BME280;3549;42.162;24.726;2023-03-22T01:35:36;47588.28;;;-141.97;82.06
7018;BME280;3549;42.162;24.726;2023-03-22T01:38:02;47617.09;;;-141.97;81.87
7018;BME280;3549;42.162;24.726;2023-03-22T01:40:28;47705.53;;;-141.97;81.92
7018;BME280;3549;42.162;24.726;2023-03-22T01:42:54;47659.38;;;-141.97;82.06
7018;BME280;3549;42.162;24.726;2023-03-22T01:45:34;47672.84;;;-141.97;82.58
7018;BME280;3549;42.162;24.726;2023-03-22T01:51:11;47611.34;;;-141.97;83.64
7018;BME280;3549;42.162;24.726;2023-03-22T01:53:44;47663.22;;;-141.97;84.15
7018;BME280;3549;42.162;24.726;2023-03-22T01:56:11;47690.16;;;-141.97;84.19
7018;BME280;3549;42.162;24.726;2023-03-22T01:58:38;47707.44;;;-141.97;84.64
7018;BME280;3549;42.162;24.726;2023-03-22T02:01:06;47707.44;;;-141.97;84.95
7018;BME280;3549;42.162;24.726;2023-03-22T02:04:01;47717.06;;;-141.97;85.49
7018;BME280;3549;42.162;24.726;2023-03-22T02:06:29;47624.78;;;-141.97;85.19
7018;BME280;3549;42.162;24.726;2023-03-22T02:08:56;47680.53;;;-141.97;85.52
7018;BME280;3549;42.162;24.726;2023-03-22T02:11:33;47690.16;;;-141.97;85.21
7018;BME280;3549;42.162;24.726;2023-03-22T02:14:36;47703.59;;;-141.97;85.21
7018;BME280;3549;42.162;24.726;2023-03-22T02:17:22;47724.75;;;-141.97;85.26
7018;BME280;3549;42.162;24.726;2023-03-22T02:20:12;47709.38;;;-141.97;85.40
7018;BME280;3549;42.162;24.726;2023-03-22T02:31:12;47707.44;;;-141.97;85.50
7018;BME280;3549;42.162;24.726;2023-03-22T02:36:40;47672.84;;;-141.97;85.48
7018;BME280;3549;42.162;24.726;2023-03-22T02:45:31;47701.69;;;-141.97;86.35
7018;BME280;3549;42.162;24.726;2023-03-22T02:51:31;47703.59;;;-141.97;86.43
7018;BME280;3549;42.162;24.726;2023-03-22T02:54:12;47697.84;;;-141.97;87.13
7018;BME280;3549;42.162;24.726;2023-03-22T02:56:47;47665.16;;;-141.97;86.49
7018;BME280;3549;42.162;24.726;2023-03-22T02:59:16;47680.53;;;-141.97;85.74
7018;BME280;3549;42.162;24.726;2023-03-22T03:01:52;47682.47;;;-141.97;85.60
7018;BME280;3549;42.162;24.726;2023-03-22T03:04:23;47705.53;;;-141.97;85.52
7018;BME280;3549;42.162;24.726;2023-03-22T03:06:53;47684.38;;;-141.97;84.98
7018;BME280;3549;42.162;24.726;2023-03-22T03:09:20;47695.91;;;-141.97;85.54
7018;BME280;3549;42.162;24.726;2023-03-22T03:11:48;47688.22;;;-141.97;85.56
7018;BME280;3549;42.162;24.726;2023-03-22T03:14:28;47703.59;;;-141.97;85.81
7018;BME280;3549;42.162;24.726;2023-03-22T03:19:51;47661.31;;;-141.97;85.38
7018;BME280;3549;42.162;24.726;2023-03-22T03:28:03;47653.63;;;-141.97;85.30
7018;BME280;3549;42.162;24.726;2023-03-22T03:30:55;47711.28;;;-141.97;85.20
7018;BME280;3549;42.162;24.726;2023-03-22T03:33:24;47649.78;;;-141.97;86.68
7018;BME280;3549;42.162;24.726;2023-03-22T03:35:58;47592.13;;;-141.97;87.54
7018;BME280;3549;42.162;24.726;2023-03-22T03:38:28;47795.88;;;-141.97;88.25
7018;BME280;3549;42.162;24.726;2023-03-22T03:40:58;47740.13;;;-141.97;88.72
7018;BME280;3549;42.162;24.726;2023-03-22T03:43:25;47695.91;;;-141.97;88.95
7018;BME280;3549;42.162;24.726;2023-03-22T03:45:52;47588.28;;;-141.97;89.02
7018;BME280;3549;42.162;24.726;2023-03-22T03:48:21;47670.91;;;-141.97;89.55
7018;BME280;3549;42.162;24.726;2023-03-22T03:50:49;47647.84;;;-141.97;90.63
7018;BME280;3549;42.162;24.726;2023-03-22T03:53:16;47717.06;;;-141.97;91.35
7018;BME280;3549;42.162;24.726;2023-03-22T03:55:41;47601.72;;;-141.97;91.37
7018;BME280;3549;42.162;24.726;2023-03-22T03:58:06;47736.28;;;-141.97;91.89
7018;BME280;3549;42.162;24.726;2023-03-22T04:00:34;47826.63;;;-141.97;91.34
7018;BME280;3549;42.162;24.726;2023-03-22T04:03:00;47672.84;;;-141.97;90.45
7018;BME280;3549;42.162;24.726;2023-03-22T04:05:25;47519.06;;;-141.97;90.39
7018;BME280;3549;42.162;24.726;2023-03-22T04:07:51;47728.59;;;-141.97;89.64
7018;BME280;3549;42.162;24.726;2023-03-22T04:10:16;47726.66;;;-141.97;89.06
7018;BME280;3549;42.162;24.726;2023-03-22T04:12:42;47715.13;;;-141.97;89.22
7018;BME280;3549;42.162;24.726;2023-03-22T04:15:07;47793.94;;;-141.97;90.08
7018;BME280;3549;42.162;24.726;2023-03-22T04:17:33;47694.00;;;-141.97;91.04
7018;BME280;3549;42.162;24.726;2023-03-22T04:19:58;47722.81;;;-141.97;91.49
7018;BME280;3549;42.162;24.726;2023-03-22T04:22:28;47718.97;;;-141.97;92.28
7018;BME280;3549;42.162;24.726;2023-03-22T04:24:59;47832.38;;;-141.97;92.97
7018;BME280;3549;42.162;24.726;2023-03-22T04:27:25;47688.22;;;-141.97;93.48
7018;BME280;3549;42.162;24.726;2023-03-22T04:29:51;47715.13;;;-141.97;94.18
7018;BME280;3549;42.162;24.726;2023-03-22T04:32:19;47763.19;;;-141.97;94.85
7018;BME280;3549;42.162;24.726;2023-03-22T04:34:48;47688.22;;;-141.97;95.44
7018;BME280;3549;42.162;24.726;2023-03-22T04:37:14;47586.34;;;-141.97;95.82
7018;BME280;3549;42.162;24.726;2023-03-22T04:39:40;47724.75;;;-141.97;95.87
7018;BME280;3549;42.162;24.726;2023-03-22T04:42:06;47818.94;;;-141.97;96.94
7018;BME280;3549;42.162;24.726;2023-03-22T04:44:32;47697.84;;;-141.97;98.17
7018;BME280;3549;42.162;24.726;2023-03-22T04:46:58;47649.78;;;-141.97;98.71
7018;BME280;3549;42.162;24.726;2023-03-22T04:49:23;47711.28;;;-141.97;99.54
7018;BME280;3549;42.162;24.726;2023-03-22T04:51:50;47765.09;;;-141.97;100.00
7018;BME280;3549;42.162;24.726;2023-03-22T04:54:16;47730.50;;;-141.97;100.00
7018;BME280;3549;42.162;24.726;2023-03-22T04:56:41;47734.34;;;-141.97;100.00
7018;BME280;3549;42.162;24.726;2023-03-22T04:59:07;47661.31;;;-141.97;100.00
7018;BME280;3549;42.162;24.726;2023-03-22T05:01:32;47699.75;;;-141.97;100.00
7018;BME280;3549;42.162;24.726;2023-03-22T05:03:59;47788.19;;;-141.97;100.00
7018;BME280;3549;42.162;24.726;2023-03-22T05:06:24;47657.47;;;-141.97;100.00
7018;BME280;3549;42.162;24.726;2023-03-22T05:08:50;47811.25;;;-141.97;100.00
7018;BME280;3549;42.162;24.726;2023-03-22T05:11:16;47747.81;;;-141.97;99.71
7018;BME280;3549;42.162;24.726;2023-03-22T05:13:44;47740.13;;;-141.97;99.12
7018;BME280;3549;42.162;24.726;2023-03-22T05:16:10;47638.25;;;-141.97;98.64
7018;BME280;3549;42.162;24.726;2023-03-22T05:18:36;47845.84;;;-141.97;100.00
7018;BME280;3549;42.162;24.726;2023-03-22T05:21:11;47636.31;;;-141.97;100.00
7018;BME280;3549;42.162;24.726;2023-03-22T05:23:39;47803.56;;;-141.97;100.00
7018;BME280;3549;42.162;24.726;2023-03-22T05:26:06;47684.38;;;-141.97;100.00
7018;BME280;3549;42.162;24.726;2023-03-22T05:28:32;47703.59;;;-141.97;100.00
7018;BME280;3549;42.162;24.726;2023-03-22T05:30:58;47807.41;;;-141.97;100.00
7018;BME280;3549;42.162;24.726;2023-03-22T05:33:24;47703.59;;;-141.97;100.00
7018;BME280;3549;42.162;24.726;2023-03-22T05:35:49;47770.88;;;-141.97;100.00
7018;BME280;3549;42.162;24.726;2023-03-22T05:38:15;47768.94;;;-141.97;100.00
7018;BME280;3549;42.162;24.726;2023-03-22T05:40:42;47772.78;;;-141.97;100.00
7018;BME280;3549;42.162;24.726;2023-03-22T05:43:07;47728.59;;;-141.97;100.00
7018;BME280;3549;42.162;24.726;2023-03-22T05:45:34;47736.28;;;-141.97;100.00
7018;BME280;3549;42.162;24.726;2023-03-22T05:48:01;47715.13;;;-141.97;100.00
7018;BME280;3549;42.162;24.726;2023-03-22T05:50:27;47680.53;;;-141.97;100.00
7018;BME280;3549;42.162;24.726;2023-03-22T05:52:52;47834.31;;;-141.97;100.00
7018;BME280;3549;42.162;24.726;2023-03-22T05:55:18;47665.16;;;-141.97;100.00
7018;BME280;3549;42.162;24.726;2023-03-22T05:57:44;47715.13;;;-141.97;99.72
7018;BME280;3549;42.162;24.726;2023-03-22T06:00:16;47713.22;;;-141.97;99.54
7018;BME280;3549;42.162;24.726;2023-03-22T06:02:44;47599.81;;;-141.97;99.19
7018;BME280;3549;42.162;24.726;2023-03-22T06:05:10;47711.28;;;-141.97;99.07
7018;BME280;3549;42.162;24.726;2023-03-22T06:07:36;47707.44;;;-141.97;99.40
7018;BME280;3549;42.162;24.726;2023-03-22T06:10:03;47770.88;;;-141.97;99.30
7018;BME280;3549;42.162;24.726;2023-03-22T06:12:29;47659.38;;;-141.97;99.35
7018;BME280;3549;42.162;24.726;2023-03-22T06:14:55;47770.88;;;-141.97;99.29
7018;BME280;3549;42.162;24.726;2023-03-22T06:17:20;47809.31;;;-141.97;99.36
7018;BME280;3549;42.162;24.726;2023-03-22T06:19:46;47715.13;;;-141.97;99.15
7018;BME280;3549;42.162;24.726;2023-03-22T06:22:12;47813.16;;;-141.97;98.76
7018;BME280;3549;42.162;24.726;2023-03-22T06:24:38;47684.38;;;-141.97;98.85
7018;BME280;3549;42.162;24.726;2023-03-22T06:27:05;47690.16;;;-141.97;98.98
7018;BME280;3549;42.162;24.726;2023-03-22T06:29:31;47669.00;;;-141.97;99.03
7018;BME280;3549;42.162;24.726;2023-03-22T06:31:57;47742.03;;;-141.97;98.85
7018;BME280;3549;42.162;24.726;2023-03-22T06:34:23;47640.16;;;-141.97;99.31
7018;BME280;3549;42.162;24.726;2023-03-22T06:36:48;47701.69;;;-141.97;98.92
7018;BME280;3549;42.162;24.726;2023-03-22T06:39:13;47615.19;;;-141.97;99.04
7018;BME280;3549;42.162;24.726;2023-03-22T06:41:39;47743.97;;;-141.97;99.18
7018;BME280;3549;42.162;24.726;2023-03-22T06:44:04;47742.03;;;-141.97;98.46
7018;BME280;3549;42.162;24.726;2023-03-22T06:46:30;47803.56;;;-141.97;98.88
7018;BME280;3549;42.162;24.726;2023-03-22T06:48:55;47730.50;;;-141.97;99.57
7018;BME280;3549;42.162;24.726;2023-03-22T06:51:20;47707.44;;;-141.97;99.82
7018;BME280;3549;42.162;24.726;2023-03-22T06:53:46;47672.84;;;-141.97;99.84
7018;BME280;3549;42.162;24.726;2023-03-22T06:56:12;47749.72;;;-141.97;99.93
7018;BME280;3549;42.162;24.726;2023-03-22T06:58:37;47726.66;;;-141.97;100.00
7018;BME280;3549;42.162;24.726;2023-03-22T07:01:03;47622.88;;;-141.97;100.00
7018;BME280;3549;42.162;24.726;2023-03-22T07:03:29;47722.81;;;-141.97;100.00
7018;BME280;3549;42.162;24.726;2023-03-22T07:06:05;47718.97;;;-141.97;100.00
7018;BME280;3549;42.162;24.726;2023-03-22T07:08:32;47703.59;;;-141.97;100.00
7018;BME280;3549;42.162;24.726;2023-03-22T07:10:58;47717.06;;;-141.97;100.00
7018;BME280;3549;42.162;24.726;2023-03-22T07:13:23;47736.28;;;-141.97;100.00
7018;BME280;3549;42.162;24.726;2023-03-22T07:15:48;47713.22;;;-141.97;100.00
7018;BME280;3549;42.162;24.726;2023-03-22T07:18:14;47778.56;;;-141.97;100.00
7018;BME280;3549;42.162;24.726;2023-03-22T07:20:39;47792.03;;;-141.97;100.00
7018;BME280;3549;42.162;24.726;2023-03-22T07:23:09;47732.44;;;-141.97;100.00
7018;BME280;3549;42.162;24.726;2023-03-22T07:25:35;47742.03;;;-141.97;100.00
7018;BME280;3549;42.162;24.726;2023-03-22T07:28:00;47753.56;;;-141.97;100.00
7018;BME280;3549;42.162;24.726;2023-03-22T07:30:26;47626.72;;;-141.97;100.00
7018;BME280;3549;42.162;24.726;2023-03-22T07:32:51;47745.88;;;-141.97;100.00
7018;BME280;3549;42.162;24.726;2023-03-22T07:35:16;47751.66;;;-141.97;100.00
7018;BME280;3549;42.162;24.726;2023-03-22T07:37:43;47692.06;;;-141.97;100.00
7018;BME280;3549;42.162;24.726;2023-03-22T07:40:09;47711.28;;;-141.97;100.00
7018;BME280;3549;42.162;24.726;2023-03-22T07:42:35;47703.59;;;-141.97;100.00
7018;BME280;3549;42.162;24.726;2023-03-22T07:45:01;47659.38;;;-141.97;100.00
7018;BME280;3549;42.162;24.726;2023-03-22T07:47:26;47742.03;;;-141.97;100.00
7018;BME280;3549;42.162;24.726;2023-03-22T07:49:51;47743.97;;;-141.97;100.00
7018;BME280;3549;42.162;24.726;2023-03-22T07:52:17;47713.22;;;-141.97;100.00
7018;BME280;3549;42.162;24.726;2023-03-22T07:54:42;47557.53;;;-141.97;100.00
7018;BME280;3549;42.162;24.726;2023-03-22T07:57:08;47703.59;;;-141.97;100.00
7018;BME280;3549;42.162;24.726;2023-03-22T07:59:34;47703.59;;;-141.97;100.00
7018;BME280;3549;42.162;24.726;2023-03-22T08:01:59;47822.78;;;-141.97;100.00
7018;BME280;3549;42.162;24.726;2023-03-22T08:04:25;47728.59;;;-141.97;100.00
7018;BME280;3549;42.162;24.726;2023-03-22T08:06:50;47653.63;;;-141.97;100.00
7018;BME280;3549;42.162;24.726;2023-03-22T08:09:16;47713.22;;;-141.97;100.00
7018;BME280;3549;42.162;24.726;2023-03-22T08:11:42;47718.97;;;-141.97;100.00
7018;BME280;3549;42.162;24.726;2023-03-22T08:14:08;47711.28;;;-141.97;100.00
7018;BME280;3549;42.162;24.726;2023-03-22T08:16:34;47770.88;;;-141.97;100.00
7018;BME280;3549;42.162;24.726;2023-03-22T08:18:59;47718.97;;;-141.97;100.00
7018;BME280;3549;42.162;24.726;2023-03-22T08:21:25;47613.25;;;-141.97;100.00
7018;BME280;3549;42.162;24.726;2023-03-22T08:23:51;47711.28;;;-141.97;100.00
7018;BME280;3549;42.162;24.726;2023-03-22T08:26:18;47674.78;;;-141.97;100.00
7018;BME280;3549;42.162;24.726;2023-03-22T08:28:43;47718.97;;;-141.97;97.53
7018;BME280;3549;42.162;24.726;2023-03-22T08:31:14;47726.66;;;-141.97;94.19
7018;BME280;3549;42.162;24.726;2023-03-22T08:33:40;47688.22;;;-141.97;89.45
7018;BME280;3549;42.162;24.726;2023-03-22T08:36:08;47718.97;;;-141.97;84.76
7018;BME280;3549;42.162;24.726;2023-03-22T08:38:34;47626.72;;;-141.97;81.57
7018;BME280;3549;42.162;24.726;2023-03-22T08:40:59;47688.22;;;-141.97;79.81
7018;BME280;3549;42.162;24.726;2023-03-22T08:43:25;47647.84;;;-141.97;78.59
7018;BME280;3549;42.162;24.726;2023-03-22T08:45:50;47694.00;;;-141.97;77.03
7018;BME280;3549;42.162;24.726;2023-03-22T08:48:16;47703.59;;;-141.97;77.06
7018;BME280;3549;42.162;24.726;2023-03-22T08:50:41;47684.38;;;-141.97;76.70
7018;BME280;3549;42.162;24.726;2023-03-22T08:53:07;47713.22;;;-141.97;77.08
7018;BME280;3549;42.162;24.726;2023-03-22T08:55:32;47595.97;;;-141.97;76.43
7018;BME280;3549;42.162;24.726;2023-03-22T08:58:00;47726.66;;;-141.97;78.28
7018;BME280;3549;42.162;24.726;2023-03-22T09:00:25;47695.91;;;-141.97;80.24
7018;BME280;3549;42.162;24.726;2023-03-22T09:02:51;47676.69;;;-141.97;80.18
7018;BME280;3549;42.162;24.726;2023-03-22T09:05:17;47703.59;;;-141.97;81.11
7018;BME280;3549;42.162;24.726;2023-03-22T09:07:42;47718.97;;;-141.97;81.43
7018;BME280;3549;42.162;24.726;2023-03-22T09:10:09;47611.34;;;-141.97;82.44
7018;BME280;3549;42.162;24.726;2023-03-22T09:12:35;47617.09;;;-141.97;82.70
7018;BME280;3549;42.162;24.726;2023-03-22T09:15:01;47718.97;;;-141.97;81.54
7018;BME280;3549;42.162;24.726;2023-03-22T09:17:26;47701.69;;;-141.97;81.97
7018;BME280;3549;42.162;24.726;2023-03-22T09:19:52;47776.63;;;-141.97;82.27
7018;BME280;3549;42.162;24.726;2023-03-22T09:22:17;47742.03;;;-141.97;81.55
7018;BME280;3549;42.162;24.726;2023-03-22T09:24:43;47872.75;;;-141.97;80.64
7018;BME280;3549;42.162;24.726;2023-03-22T09:27:08;47776.63;;;-141.97;79.69
7018;BME280;3549;42.162;24.726;2023-03-22T09:29:34;47718.97;;;-141.97;78.10
7018;BME280;3549;42.162;24.726;2023-03-22T09:31:59;47718.97;;;-141.97;77.71
7018;BME280;3549;42.162;24.726;2023-03-22T09:34:25;47549.84;;;-141.97;78.71
7018;BME280;3549;42.162;24.726;2023-03-22T09:36:51;47776.63;;;-141.97;78.59
7018;BME280;3549;42.162;24.726;2023-03-22T09:39:17;47657.47;;;-141.97;77.38
7018;BME280;3549;42.162;24.726;2023-03-22T09:41:48;47678.63;;;-141.97;77.98
7018;BME280;3549;42.162;24.726;2023-03-22T09:44:26;47680.53;;;-141.97;78.88
7018;BME280;3549;42.162;24.726;2023-03-22T09:46:54;47726.66;;;-141.97;77.50
7018;BME280;3549;42.162;24.726;2023-03-22T09:49:28;47722.81;;;-141.97;78.33
7018;BME280;3549;42.162;24.726;2023-03-22T09:51:55;47715.13;;;-141.97;80.62
7018;BME280;3549;42.162;24.726;2023-03-22T09:54:30;47580.59;;;-141.97;82.50
7018;BME280;3549;42.162;24.726;2023-03-22T10:08:34;47640.16;;;-141.97;80.52
7018;BME280;3549;42.162;24.726;2023-03-22T10:11:01;47851.59;;;-141.97;80.06
7018;BME280;3549;42.162;24.726;2023-03-22T10:13:56;47717.06;;;-141.97;79.64
7018;BME280;3549;42.162;24.726;2023-03-22T10:16:33;47718.97;;;-141.97;78.59
7018;BME280;3549;42.162;24.726;2023-03-22T10:19:18;47705.53;;;-141.97;78.04
7018;BME280;3549;42.162;24.726;2023-03-22T10:21:46;47657.47;;;-141.97;78.26
7018;BME280;3549;42.162;24.726;2023-03-22T10:24:23;47584.44;;;-141.97;77.03
7018;BME280;3549;42.162;24.726;2023-03-22T10:26:52;47574.81;;;-141.97;76.56
7018;BME280;3549;42.162;24.726;2023-03-22T10:29:33;47738.19;;;-141.97;75.06
7018;BME280;3549;42.162;24.726;2023-03-22T10:32:18;47665.16;;;-141.97;74.35
7018;BME280;3549;42.162;24.726;2023-03-22T10:34:45;47638.25;;;-141.97;72.45
7018;BME280;3549;42.162;24.726;2023-03-22T10:37:17;47711.28;;;-141.97;72.67
7018;BME280;3549;42.162;24.726;2023-03-22T10:39:47;47617.09;;;-141.97;71.61
7018;BME280;3549;42.162;24.726;2023-03-22T10:42:22;47707.44;;;-141.97;70.27
7018;BME280;3549;42.162;24.726;2023-03-22T10:47:33;47751.66;;;-141.97;68.73
7018;BME280;3549;42.162;24.726;2023-03-22T10:50:04;47676.69;;;-141.97;69.80
7018;BME280;3549;42.162;24.726;2023-03-22T10:55:53;47718.97;;;-141.97;68.76
7018;BME280;3549;42.162;24.726;2023-03-22T10:58:22;47815.09;;;-141.97;68.31
7018;BME280;3549;42.162;24.726;2023-03-22T11:00:55;47745.88;;;-141.97;68.85
7018;BME280;3549;42.162;24.726;2023-03-22T11:03:38;47678.63;;;-141.97;69.76
7018;BME280;3549;42.162;24.726;2023-03-22T11:06:09;47705.53;;;-141.97;69.62
7018;BME280;3549;42.162;24.726;2023-03-22T11:08:39;47724.75;;;-141.97;68.32
7018;BME280;3549;42.162;24.726;2023-03-22T11:11:06;47815.09;;;-141.97;67.12
7018;BME280;3549;42.162;24.726;2023-03-22T11:13:38;47669.00;;;-141.97;69.18
7018;BME280;3549;42.162;24.726;2023-03-22T11:16:04;47832.38;;;-141.97;68.30
7018;BME280;3549;42.162;24.726;2023-03-22T11:18:31;47617.09;;;-141.97;68.14
7018;BME280;3549;42.162;24.726;2023-03-22T11:21:10;47657.47;;;-141.97;68.53
7018;BME280;3549;42.162;24.726;2023-03-22T11:23:37;47699.75;;;-141.97;66.90
7018;BME280;3549;42.162;24.726;2023-03-22T11:26:11;47661.31;;;-141.97;67.89
7018;BME280;3549;42.162;24.726;2023-03-22T11:28:45;47807.41;;;-141.97;66.77
7018;BME280;3549;42.162;24.726;2023-03-22T11:31:14;47742.03;;;-141.97;67.17
7018;BME280;3549;42.162;24.726;2023-03-22T11:34:00;47705.53;;;-141.97;64.69
7018;BME280;3549;42.162;24.726;2023-03-22T11:36:27;47572.91;;;-141.97;64.92
7018;BME280;3549;42.162;24.726;2023-03-22T11:38:58;47688.22;;;-141.97;65.06
7018;BME280;3549;42.162;24.726;2023-03-22T11:41:44;47707.44;;;-141.97;64.85
7018;BME280;3549;42.162;24.726;2023-03-22T11:44:12;47676.69;;;-141.97;64.51
7018;BME280;3549;42.162;24.726;2023-03-22T11:46:38;47688.22;;;-141.97;64.86
7018;BME280;3549;42.162;24.726;2023-03-22T11:49:13;47659.38;;;-141.97;64.05
7018;BME280;3549;42.162;24.726;2023-03-22T11:51:41;47720.91;;;-141.97;62.81
7018;BME280;3549;42.162;24.726;2023-03-22T11:54:28;47761.25;;;-141.97;62.79
7018;BME280;3549;42.162;24.726;2023-03-22T11:56:58;47722.81;;;-141.97;63.41
7018;BME280;3549;42.162;24.726;2023-03-22T11:59:35;47717.06;;;-141.97;64.56
7018;BME280;3549;42.162;24.726;2023-03-22T12:02:25;47617.09;;;-141.97;64.11
7018;BME280;3549;42.162;24.726;2023-03-22T12:04:57;47715.13;;;-141.97;65.44
7018;BME280;3549;42.162;24.726;2023-03-22T12:07:28;47676.69;;;-141.97;64.89
7018;BME280;3549;42.162;24.726;2023-03-22T12:10:16;47695.91;;;-141.97;66.42
7018;BME280;3549;42.162;24.726;2023-03-22T12:12:58;47730.50;;;-141.97;65.50
7018;BME280;3549;42.162;24.726;2023-03-22T12:15:28;47684.38;;;-141.97;65.76
7018;BME280;3549;42.162;24.726;2023-03-22T12:18:23;47667.06;;;-141.97;65.69
7018;BME280;3549;42.162;24.726;2023-03-22T12:20:56;47707.44;;;-141.97;66.19
7018;BME280;3549;42.162;24.726;2023-03-22T12:23:28;47695.91;;;-141.97;66.92
7018;BME280;3549;42.162;24.726;2023-03-22T12:26:02;47701.69;;;-141.97;65.54
7018;BME280;3549;42.162;24.726;2023-03-22T12:30:57;47734.34;;;-141.97;65.10
7018;BME280;3549;42.162;24.726;2023-03-22T12:33:26;47738.19;;;-141.97;64.69
7018;BME280;3549;42.162;24.726;2023-03-22T12:36:02;47688.22;;;-141.97;62.70
7018;BME280;3549;42.162;24.726;2023-03-22T12:38:41;47820.84;;;-141.97;63.86
7018;BME280;3549;42.162;24.726;2023-03-22T12:41:17;47730.50;;;-141.97;62.68
7018;BME280;3549;42.162;24.726;2023-03-22T12:43:57;47694.00;;;-141.97;62.14
7018;BME280;3549;42.162;24.726;2023-03-22T12:49:56;47707.44;;;-141.97;61.39
7018;BME280;3549;42.162;24.726;2023-03-22T12:52:25;47830.47;;;-141.97;60.74
7018;BME280;3549;42.162;24.726;2023-03-22T12:54:55;47617.09;;;-141.97;59.17
7018;BME280;3549;42.162;24.726;2023-03-22T12:57:23;47765.09;;;-141.97;58.35
7018;BME280;3549;42.162;24.726;2023-03-22T12:59:51;47695.91;;;-141.97;59.53
7018;BME280;3549;42.162;24.726;2023-03-22T13:02:25;47649.78;;;-141.97;59.28
7018;BME280;3549;42.162;24.726;2023-03-22T13:04:56;47694.00;;;-141.97;59.02
7018;BME280;3549;42.162;24.726;2023-03-22T13:09:59;47692.06;;;-141.97;55.27
7018;BME280;3549;42.162;24.726;2023-03-22T13:12:28;47669.00;;;-141.97;53.64
7018;BME280;3549;42.162;24.726;2023-03-22T13:14:55;47676.69;;;-141.97;53.58
7018;BME280;3549;42.162;24.726;2023-03-22T13:35:49;47705.53;;;-141.97;58.11
7018;BME280;3549;42.162;24.726;2023-03-22T13:41:03;47699.75;;;-141.97;58.52
7018;BME280;3549;42.162;24.726;2023-03-22T13:53:44;47692.06;;;-141.97;59.73
7018;BME280;3549;42.162;24.726;2023-03-22T14:02:16;47718.97;;;-141.97;60.90
7018;BME280;3549;42.162;24.726;2023-03-22T14:04:55;47718.97;;;-141.97;62.32
7018;BME280;3549;42.162;24.726;2023-03-22T14:07:28;47718.97;;;-141.97;60.93
7018;BME280;3549;42.162;24.726;2023-03-22T14:10:02;47690.16;;;-141.97;60.66
7018;BME280;3549;42.162;24.726;2023-03-22T14:15:15;47645.94;;;-141.97;60.90
7018;BME280;3549;42.162;24.726;2023-03-22T14:17:45;47805.47;;;-141.97;61.04
7018;BME280;3549;42.162;24.726;2023-03-22T14:20:16;47661.31;;;-141.97;61.51
7018;BME280;3549;42.162;24.726;2023-03-22T14:22:47;47699.75;;;-141.97;60.66
7018;BME280;3549;42.162;24.726;2023-03-22T14:25:20;47788.19;;;-141.97;61.16
7018;BME280;3549;42.162;24.726;2023-03-22T14:27:46;47776.63;;;-141.97;62.18
7018;BME280;3549;42.162;24.726;2023-03-22T14:30:34;47688.22;;;-141.97;62.11
7018;BME280;3549;42.162;24.726;2023-03-22T14:33:05;47653.63;;;-141.97;61.91
7018;BME280;3549;42.162;24.726;2023-03-22T14:35:45;47724.75;;;-141.97;61.67